sensor_id;sensor_type;location;lat;lon;timestamp;pressure;altitude;pressure_sealevel;temperature;humidity
21900;BME280;11114;50.658;12.704;2023-10-13T00:01:16;96020.56;;;12.70;87.59
21900;BME280;11114;50.658;12.704;2023-10-13T00:04:03;96020.19;;;12.73;87.23
21900;BME280;11114;50.658;12.704;2023-10-13T00:07:10;96028.50;;;12.77;87.07
21900;BME280;11114;50.658;12.704;2023-10-13T00:10:17;96024.91;;;12.84;86.74
21900;BME280;11114;50.658;12.704;2023-10-13T00:13:05;96024.03;;;12.77;86.66
21900;BME280;11114;50.658;12.704;2023-10-13T00:16:05;96026.03;;;12.75;86.77
21900;BME280;11114;50.658;12.704;2023-10-13T00:18:56;96024.81;;;12.71;86.79
21900;BME280;11114;50.658;12.704;2023-10-13T00:21:45;96032.09;;;12.69;87.05
21900;BME280;11114;50.658;12.704;2023-10-13T00:24:31;96028.06;;;12.73;87.08
21900;BME280;11114;50.658;12.704;2023-10-13T00:27:25;96027.66;;;12.76;86.84
21900;BME280;11114;50.658;12.704;2023-10-13T00:30:20;96025.22;;;12.75;86.59
21900;BME280;11114;50.658;12.704;2023-10-13T00:33:19;96018.34;;;12.74;86.69
21900;BME280;11114;50.658;12.704;2023-10-13T00:36:06;96026.03;;;12.75;86.70
21900;BME280;11114;50.658;12.704;2023-10-13T00:39:06;96020.38;;;12.78;86.51
21900;BME280;11114;50.658;12.704;2023-10-13T00:41:53;96009.66;;;12.80;86.46
21900;BME280;11114;50.658;12.704;2023-10-13T00:44:44;96017.75;;;12.78;86.53
21900;BME280;11114;50.658;12.704;2023-10-13T00:47:35;96015.13;;;12.78;86.58
21900;BME280;11114;50.658;12.704;2023-10-13T00:50:22;96015.91;;;12.79;86.50
21900;BME280;11114;50.658;12.704;2023-10-13T00:53:10;96012.69;;;12.77;86.52
21900;BME280;11114;50.658;12.704;2023-10-13T00:55:57;96025.66;;;12.78;86.54
21900;BME280;11114;50.658;12.704;2023-10-13T00:58:45;96029.53;;;12.82;86.22
21900;BME280;11114;50.658;12.704;2023-10-13T01:01:39;96019.44;;;12.86;85.99
21900;BME280;11114;50.658;12.704;2023-10-13T01:04:30;96025.13;;;12.89;85.91
21900;BME280;11114;50.658;12.704;2023-10-13T01:07:18;96027.94;;;12.88;85.83
21900;BME280;11114;50.658;12.704;2023-10-13T01:10:10;96031.78;;;12.85;85.97
21900;BME280;11114;50.658;12.704;2023-10-13T01:13:01;96033.63;;;12.85;85.97
21900;BME280;11114;50.658;12.704;2023-10-13T01:15:49;96043.16;;;12.86;86.06
21900;BME280;11114;50.658;12.704;2023-10-13T01:18:36;96049.22;;;12.86;85.82
21900;BME280;11114;50.658;12.704;2023-10-13T01:21:36;96048.84;;;12.89;86.00
21900;BME280;11114;50.658;12.704;2023-10-13T01:24:22;96048.84;;;12.89;85.82
21900;BME280;11114;50.658;12.704;2023-10-13T01:27:12;96045.22;;;12.90;85.70
21900;BME280;11114;50.658;12.704;2023-10-13T01:30:07;96041.75;;;12.90;85.84
21900;BME280;11114;50.658;12.704;2023-10-13T01:33:09;96039.94;;;12.90;85.79
21900;BME280;11114;50.658;12.704;2023-10-13T01:35:57;96030.41;;;12.89;85.68
21900;BME280;11114;50.658;12.704;2023-10-13T01:38:45;96041.53;;;12.91;85.62
21900;BME280;11114;50.658;12.704;2023-10-13T01:41:33;96035.47;;;12.91;85.77
21900;BME280;11114;50.658;12.704;2023-10-13T01:44:27;96033.03;;;12.96;85.71
21900;BME280;11114;50.658;12.704;2023-10-13T01:47:16;96032.28;;;13.01;85.46
21900;BME280;11114;50.658;12.704;2023-10-13T01:50:03;96035.28;;;12.98;85.61
21900;BME280;11114;50.658;12.704;2023-10-13T01:53:14;96025.78;;;13.04;85.43
21900;BME280;11114;50.658;12.704;2023-10-13T01:56:07;96018.91;;;13.09;85.24
21900;BME280;11114;50.658;12.704;2023-10-13T01:58:57;96028.25;;;13.12;84.90
21900;BME280;11114;50.658;12.704;2023-10-13T02:01:44;96033.91;;;13.09;84.98
21900;BME280;11114;50.658;12.704;2023-10-13T02:04:31;96032.06;;;13.03;85.08
21900;BME280;11114;50.658;12.704;2023-10-13T02:07:28;96028.22;;;12.99;85.10
21900;BME280;11114;50.658;12.704;2023-10-13T02:10:21;96028.00;;;13.00;85.08
21900;BME280;11114;50.658;12.704;2023-10-13T02:13:13;96034.09;;;13.01;85.28
21900;BME280;11114;50.658;12.704;2023-10-13T02:16:04;96024.16;;;13.03;85.05
21900;BME280;11114;50.658;12.704;2023-10-13T02:18:51;96021.53;;;13.03;85.14
21900;BME280;11114;50.658;12.704;2023-10-13T02:21:37;96020.91;;;13.01;85.25
21900;BME280;11114;50.658;12.704;2023-10-13T02:24:30;96016.63;;;13.00;85.45
21900;BME280;11114;50.658;12.704;2023-10-13T02:27:17;96004.09;;;13.02;85.22
21900;BME280;11114;50.658;12.704;2023-10-13T02:30:04;96015.63;;;13.01;85.33
21900;BME280;11114;50.658;12.704;2023-10-13T02:32:52;96010.38;;;13.01;85.59
21900;BME280;11114;50.658;12.704;2023-10-13T02:35:40;96010.19;;;13.02;85.51
21900;BME280;11114;50.658;12.704;2023-10-13T02:38:39;96003.09;;;13.03;85.69
21900;BME280;11114;50.658;12.704;2023-10-13T02:41:25;96001.88;;;13.05;85.57
21900;BME280;11114;50.658;12.704;2023-10-13T02:44:13;95997.44;;;13.06;85.59
21900;BME280;11114;50.658;12.704;2023-10-13T02:47:07;96003.69;;;13.05;85.54
21900;BME280;11114;50.658;12.704;2023-10-13T02:50:00;95999.22;;;13.05;85.55
21900;BME280;11114;50.658;12.704;2023-10-13T02:52:47;95995.38;;;13.01;85.75
21900;BME280;11114;50.658;12.704;2023-10-13T02:55:37;95991.31;;;12.99;86.01
21900;BME280;11114;50.658;12.704;2023-10-13T02:58:25;95990.50;;;12.98;86.26
21900;BME280;11114;50.658;12.704;2023-10-13T03:01:24;95985.84;;;13.00;86.28
21900;BME280;11114;50.658;12.704;2023-10-13T03:04:15;95984.22;;;12.99;86.42
21900;BME280;11114;50.658;12.704;2023-10-13T03:07:10;95987.47;;;13.01;86.58
21900;BME280;11114;50.658;12.704;2023-10-13T03:09:58;95990.91;;;13.02;86.43
21900;BME280;11114;50.658;12.704;2023-10-13T03:12:46;95993.38;;;13.03;86.44
21900;BME280;11114;50.658;12.704;2023-10-13T03:15:35;95991.53;;;13.04;86.33
21900;BME280;11114;50.658;12.704;2023-10-13T03:18:21;95986.25;;;13.04;86.51
21900;BME280;11114;50.658;12.704;2023-10-13T03:21:09;95975.09;;;13.02;86.71
21900;BME280;11114;50.658;12.704;2023-10-13T03:23:57;95972.06;;;13.05;86.75
21900;BME280;11114;50.658;12.704;2023-10-13T03:26:50;95978.75;;;13.01;87.00
21900;BME280;11114;50.658;12.704;2023-10-13T03:29:39;95965.78;;;12.99;87.25
21900;BME280;11114;50.658;12.704;2023-10-13T03:32:41;95967.81;;;13.04;86.90
21900;BME280;11114;50.658;12.704;2023-10-13T03:35:41;95950.38;;;13.03;86.95
21900;BME280;11114;50.658;12.704;2023-10-13T03:38:29;95953.63;;;13.05;86.84
21900;BME280;11114;50.658;12.704;2023-10-13T03:41:18;95952.41;;;13.07;86.69
21900;BME280;11114;50.658;12.704;2023-10-13T03:44:08;95957.91;;;13.06;86.66
21900;BME280;11114;50.658;12.704;2023-10-13T03:47:00;95955.44;;;13.04;86.69
21900;BME280;11114;50.658;12.704;2023-10-13T03:50:05;95955.44;;;13.04;86.48
21900;BME280;11114;50.658;12.704;2023-10-13T03:53:02;95956.25;;;13.05;86.64
21900;BME280;11114;50.658;12.704;2023-10-13T03:55:49;95955.44;;;12.98;87.19
21900;BME280;11114;50.658;12.704;2023-10-13T03:58:58;95945.28;;;12.95;87.30
21900;BME280;11114;50.658;12.704;2023-10-13T04:02:17;95941.03;;;12.94;87.43
21900;BME280;11114;50.658;12.704;2023-10-13T04:05:10;95938.00;;;12.97;87.27
21900;BME280;11114;50.658;12.704;2023-10-13T04:08:15;95947.13;;;12.95;87.70
21900;BME280;11114;50.658;12.704;2023-10-13T04:11:14;95944.66;;;12.93;87.93
21900;BME280;11114;50.658;12.704;2023-10-13T04:14:20;95945.88;;;12.91;88.04
21900;BME280;11114;50.658;12.704;2023-10-13T04:17:25;95946.47;;;12.86;88.48
21900;BME280;11114;50.658;12.704;2023-10-13T04:20:15;95953.59;;;12.86;88.67
21900;BME280;11114;50.658;12.704;2023-10-13T04:23:13;95954.00;;;12.89;88.55
21900;BME280;11114;50.658;12.704;2023-10-13T04:26:12;95940.81;;;12.89;88.58
21900;BME280;11114;50.658;12.704;2023-10-13T04:29:08;95936.75;;;12.87;88.83
21900;BME280;11114;50.658;12.704;2023-10-13T04:32:15;95945.47;;;12.87;89.12
21900;BME280;11114;50.658;12.704;2023-10-13T04:35:15;95950.75;;;12.87;89.30
21900;BME280;11114;50.658;12.704;2023-10-13T04:38:02;95944.47;;;12.88;89.45
21900;BME280;11114;50.658;12.704;2023-10-13T04:41:04;95941.63;;;12.90;89.40
21900;BME280;11114;50.658;12.704;2023-10-13T04:44:12;95933.97;;;12.95;89.44
21900;BME280;11114;50.658;12.704;2023-10-13T04:47:18;95941.06;;;13.00;89.00
21900;BME280;11114;50.658;12.704;2023-10-13T04:50:08;95942.69;;;13.01;88.87
21900;BME280;11114;50.658;12.704;2023-10-13T04:53:08;95935.41;;;13.03;89.02
21900;BME280;11114;50.658;12.704;2023-10-13T04:56:13;95936.81;;;13.06;88.99
21900;BME280;11114;50.658;12.704;2023-10-13T04:59:35;95937.84;;;13.11;88.56
21900;BME280;11114;50.658;12.704;2023-10-13T05:02:22;95942.50;;;13.09;88.99
21900;BME280;11114;50.658;12.704;2023-10-13T05:05:42;95938.25;;;13.15;88.80
21900;BME280;11114;50.658;12.704;2023-10-13T05:08:39;95939.25;;;13.14;88.89
21900;BME280;11114;50.658;12.704;2023-10-13T05:12:04;95934.78;;;13.14;88.90
21900;BME280;11114;50.658;12.704;2023-10-13T05:15:27;95950.41;;;13.16;88.62
21900;BME280;11114;50.658;12.704;2023-10-13T05:18:33;95938.88;;;13.17;88.87
21900;BME280;11114;50.658;12.704;2023-10-13T05:21:38;95948.16;;;13.13;89.24
21900;BME280;11114;50.658;12.704;2023-10-13T05:24:42;95942.91;;;13.13;89.25
21900;BME280;11114;50.658;12.704;2023-10-13T05:27:47;95940.69;;;13.16;89.26
21900;BME280;11114;50.658;12.704;2023-10-13T05:31:17;95937.41;;;13.14;89.53
21900;BME280;11114;50.658;12.704;2023-10-13T05:34:23;95936.22;;;13.17;89.47
21900;BME280;11114;50.658;12.704;2023-10-13T05:37:47;95941.09;;;13.20;89.32
21900;BME280;11114;50.658;12.704;2023-10-13T05:41:10;95944.34;;;13.22;89.07
21900;BME280;11114;50.658;12.704;2023-10-13T05:44:15;95936.22;;;13.23;89.16
21900;BME280;11114;50.658;12.704;2023-10-13T05:47:21;95937.47;;;13.27;89.12
21900;BME280;11114;50.658;12.704;2023-10-13T05:50:26;95938.06;;;13.29;89.09
21900;BME280;11114;50.658;12.704;2023-10-13T05:53:12;95939.88;;;13.29;88.99
21900;BME280;11114;50.658;12.704;2023-10-13T05:56:00;95935.03;;;13.26;89.28
21900;BME280;11114;50.658;12.704;2023-10-13T05:59:07;95936.63;;;13.27;89.38
21900;BME280;11114;50.658;12.704;2023-10-13T06:02:18;95941.91;;;13.27;89.46
21900;BME280;11114;50.658;12.704;2023-10-13T06:05:24;95940.72;;;13.29;89.07
21900;BME280;11114;50.658;12.704;2023-10-13T06:08:28;95946.19;;;13.34;88.95
21900;BME280;11114;50.658;12.704;2023-10-13T06:11:34;95940.69;;;13.36;89.12
21900;BME280;11114;50.658;12.704;2023-10-13T06:14:39;95950.84;;;13.39;88.71
21900;BME280;11114;50.658;12.704;2023-10-13T06:17:45;95951.47;;;13.41;88.56
21900;BME280;11114;50.658;12.704;2023-10-13T06:20:50;95960.16;;;13.41;88.75
21900;BME280;11114;50.658;12.704;2023-10-13T06:23:55;95955.72;;;13.42;88.54
21900;BME280;11114;50.658;12.704;2023-10-13T06:27:01;95958.16;;;13.43;88.31
21900;BME280;11114;50.658;12.704;2023-10-13T06:30:07;95954.28;;;13.46;88.30
21900;BME280;11114;50.658;12.704;2023-10-13T06:32:53;95954.13;;;13.47;88.34
21900;BME280;11114;50.658;12.704;2023-10-13T06:35:49;95954.53;;;13.51;88.42
21900;BME280;11114;50.658;12.704;2023-10-13T06:38:37;95961.00;;;13.55;88.28
21900;BME280;11114;50.658;12.704;2023-10-13T06:41:27;95958.59;;;13.60;87.98
21900;BME280;11114;50.658;12.704;2023-10-13T06:44:26;95954.09;;;13.60;87.84
21900;BME280;11114;50.658;12.704;2023-10-13T06:47:15;95952.88;;;13.63;88.01
21900;BME280;11114;50.658;12.704;2023-10-13T06:50:03;95950.84;;;13.65;87.98
21900;BME280;11114;50.658;12.704;2023-10-13T06:53:00;95949.22;;;13.64;88.10
21900;BME280;11114;50.658;12.704;2023-10-13T06:55:48;95942.94;;;13.65;88.26
21900;BME280;11114;50.658;12.704;2023-10-13T06:58:43;95941.72;;;13.67;87.89
21900;BME280;11114;50.658;12.704;2023-10-13T07:01:34;95945.38;;;13.73;87.34
21900;BME280;11114;50.658;12.704;2023-10-13T07:04:28;95939.69;;;13.76;87.58
21900;BME280;11114;50.658;12.704;2023-10-13T07:07:15;95939.13;;;13.80;87.75
21900;BME280;11114;50.658;12.704;2023-10-13T07:10:03;95933.41;;;13.83;87.63
21900;BME280;11114;50.658;12.704;2023-10-13T07:12:54;95936.06;;;13.89;87.67
21900;BME280;11114;50.658;12.704;2023-10-13T07:15:42;95935.25;;;13.95;86.84
21900;BME280;11114;50.658;12.704;2023-10-13T07:18:31;95933.81;;;13.99;86.98
21900;BME280;11114;50.658;12.704;2023-10-13T07:21:22;95935.63;;;14.05;86.48
21900;BME280;11114;50.658;12.704;2023-10-13T07:24:18;95928.31;;;14.07;86.73
21900;BME280;11114;50.658;12.704;2023-10-13T07:27:05;95936.63;;;14.11;87.09
21900;BME280;11114;50.658;12.704;2023-10-13T07:29:54;95926.47;;;14.14;87.12
21900;BME280;11114;50.658;12.704;2023-10-13T07:33:01;95923.44;;;14.17;86.90
21900;BME280;11114;50.658;12.704;2023-10-13T07:35:59;95923.63;;;14.22;87.11
21900;BME280;11114;50.658;12.704;2023-10-13T07:38:48;95931.94;;;14.26;86.94
21900;BME280;11114;50.658;12.704;2023-10-13T07:41:52;95921.56;;;14.37;87.54
21900;BME280;11114;50.658;12.704;2023-10-13T07:44:51;95909.28;;;14.49;87.32
21900;BME280;11114;50.658;12.704;2023-10-13T07:48:08;95905.81;;;14.62;86.48
21900;BME280;11114;50.658;12.704;2023-10-13T07:51:09;95907.41;;;14.63;86.01
21900;BME280;11114;50.658;12.704;2023-10-13T07:54:06;95895.63;;;14.65;86.05
21900;BME280;11114;50.658;12.704;2023-10-13T07:56:57;95895.63;;;14.65;86.67
21900;BME280;11114;50.658;12.704;2023-10-13T07:59:45;95897.25;;;14.72;86.31
21900;BME280;11114;50.658;12.704;2023-10-13T08:02:35;95896.19;;;14.80;86.40
21900;BME280;11114;50.658;12.704;2023-10-13T08:05:35;95896.75;;;14.88;86.27
21900;BME280;11114;50.658;12.704;2023-10-13T08:08:40;95892.88;;;14.91;85.52
21900;BME280;11114;50.658;12.704;2023-10-13T08:11:27;95894.50;;;14.92;85.25
21900;BME280;11114;50.658;12.704;2023-10-13T08:14:18;95903.47;;;14.91;85.13
21900;BME280;11114;50.658;12.704;2023-10-13T08:17:23;95893.06;;;14.89;85.16
21900;BME280;11114;50.658;12.704;2023-10-13T08:20:17;95902.63;;;14.90;85.36
21900;BME280;11114;50.658;12.704;2023-10-13T08:23:04;95906.69;;;14.93;85.02
21900;BME280;11114;50.658;12.704;2023-10-13T08:26:00;95906.69;;;14.93;85.08
21900;BME280;11114;50.658;12.704;2023-10-13T08:29:07;95906.25;;;14.96;85.10
21900;BME280;11114;50.658;12.704;2023-10-13T08:32:09;95900.97;;;14.96;84.48
21900;BME280;11114;50.658;12.704;2023-10-13T08:35:22;95892.28;;;14.89;84.55
21900;BME280;11114;50.658;12.704;2023-10-13T08:38:11;95889.63;;;14.89;84.15
21900;BME280;11114;50.658;12.704;2023-10-13T08:41:16;95897.19;;;14.85;84.21
21900;BME280;11114;50.658;12.704;2023-10-13T08:44:05;95907.75;;;14.85;84.21
21900;BME280;11114;50.658;12.704;2023-10-13T08:46:54;95903.25;;;14.86;83.41
21900;BME280;11114;50.658;12.704;2023-10-13T08:49:53;95904.09;;;14.86;83.50
21900;BME280;11114;50.658;12.704;2023-10-13T08:52:57;95911.59;;;14.89;82.83
21900;BME280;11114;50.658;12.704;2023-10-13T08:55:44;95899.19;;;14.90;83.07
21900;BME280;11114;50.658;12.704;2023-10-13T08:58:49;95896.56;;;14.90;82.47
21900;BME280;11114;50.658;12.704;2023-10-13T09:01:41;95897.78;;;14.87;81.98
21900;BME280;11114;50.658;12.704;2023-10-13T09:04:46;95890.88;;;14.86;81.93
21900;BME280;11114;50.658;12.704;2023-10-13T09:07:44;95900.63;;;14.86;80.99
21900;BME280;11114;50.658;12.704;2023-10-13T09:10:58;95894.31;;;14.87;81.61
21900;BME280;11114;50.658;12.704;2023-10-13T09:13:57;95899.81;;;14.92;81.11
21900;BME280;11114;50.658;12.704;2023-10-13T09:16:50;95898.34;;;14.96;80.53
21900;BME280;11114;50.658;12.704;2023-10-13T09:19:54;95901.16;;;15.01;79.85
21900;BME280;11114;50.658;12.704;2023-10-13T09:22:44;95911.53;;;15.02;79.94
21900;BME280;11114;50.658;12.704;2023-10-13T09:25:40;95890.75;;;15.06;80.59
21900;BME280;11114;50.658;12.704;2023-10-13T09:29:18;95888.06;;;15.12;79.88
21900;BME280;11114;50.658;12.704;2023-10-13T09:32:05;95877.47;;;15.19;79.82
21900;BME280;11114;50.658;12.704;2023-10-13T09:35:01;95880.47;;;15.22;79.19
21900;BME280;11114;50.658;12.704;2023-10-13T09:37:49;95874.19;;;15.23;78.80
21900;BME280;11114;50.658;12.704;2023-10-13T09:40:36;95876.19;;;15.28;78.88
21900;BME280;11114;50.658;12.704;2023-10-13T09:43:24;95873.91;;;15.31;78.81
21900;BME280;11114;50.658;12.704;2023-10-13T09:46:20;95868.16;;;15.34;78.70
21900;BME280;11114;50.658;12.704;2023-10-13T09:49:13;95872.22;;;15.37;78.34
21900;BME280;11114;50.658;12.704;2023-10-13T09:52:21;95850.63;;;15.40;77.48
21900;BME280;11114;50.658;12.704;2023-10-13T09:55:21;95857.13;;;15.44;76.95
21900;BME280;11114;50.658;12.704;2023-10-13T09:58:12;95848.53;;;15.48;77.15
21900;BME280;11114;50.658;12.704;2023-10-13T10:01:06;95851.31;;;15.53;76.68
21900;BME280;11114;50.658;12.704;2023-10-13T10:04:06;95845.38;;;15.64;76.38
21900;BME280;11114;50.658;12.704;2023-10-13T10:07:00;95849.34;;;15.73;75.89
21900;BME280;11114;50.658;12.704;2023-10-13T10:09:55;95843.72;;;15.87;75.47
21900;BME280;11114;50.658;12.704;2023-10-13T10:12:53;95841.38;;;15.97;75.40
21900;BME280;11114;50.658;12.704;2023-10-13T10:15:46;95834.16;;;16.04;75.24
21900;BME280;11114;50.658;12.704;2023-10-13T10:18:35;95835.97;;;16.04;74.60
21900;BME280;11114;50.658;12.704;2023-10-13T10:21:32;95839.88;;;16.01;73.36
21900;BME280;11114;50.658;12.704;2023-10-13T10:24:22;95829.66;;;16.05;73.82
21900;BME280;11114;50.658;12.704;2023-10-13T10:27:31;95838.44;;;16.05;73.03
21900;BME280;11114;50.658;12.704;2023-10-13T10:30:24;95827.59;;;16.07;73.46
21900;BME280;11114;50.658;12.704;2023-10-13T10:33:12;95830.25;;;16.07;73.12
21900;BME280;11114;50.658;12.704;2023-10-13T10:36:01;95818.41;;;16.09;73.01
21900;BME280;11114;50.658;12.704;2023-10-13T10:38:54;95814.50;;;16.12;72.83
21900;BME280;11114;50.658;12.704;2023-10-13T10:41:45;95823.63;;;16.16;73.10
21900;BME280;11114;50.658;12.704;2023-10-13T10:44:41;95816.03;;;16.19;72.78
21900;BME280;11114;50.658;12.704;2023-10-13T10:47:31;95812.97;;;16.22;72.47
21900;BME280;11114;50.658;12.704;2023-10-13T10:50:26;95817.25;;;16.23;71.00
21900;BME280;11114;50.658;12.704;2023-10-13T10:53:22;95801.34;;;16.23;70.76
21900;BME280;11114;50.658;12.704;2023-10-13T10:56:25;95796.84;;;16.24;70.75
21900;BME280;11114;50.658;12.704;2023-10-13T10:59:23;95800.88;;;16.26;69.90
21900;BME280;11114;50.658;12.704;2023-10-13T11:02:11;95791.69;;;16.29;69.74
21900;BME280;11114;50.658;12.704;2023-10-13T11:05:13;95788.38;;;16.33;69.80
21900;BME280;11114;50.658;12.704;2023-10-13T11:08:05;95788.75;;;16.36;69.13
21900;BME280;11114;50.658;12.704;2023-10-13T11:10:58;95784.84;;;16.39;68.91
21900;BME280;11114;50.658;12.704;2023-10-13T11:13:59;95780.28;;;16.46;68.13
21900;BME280;11114;50.658;12.704;2023-10-13T11:17:03;95775.34;;;16.49;68.57
21900;BME280;11114;50.658;12.704;2023-10-13T11:20:12;95771.56;;;16.57;68.15
21900;BME280;11114;50.658;12.704;2023-10-13T11:23:10;95767.69;;;16.71;66.31
21900;BME280;11114;50.658;12.704;2023-10-13T11:25:58;95761.63;;;16.82;66.18
21900;BME280;11114;50.658;12.704;2023-10-13T11:28:51;95750.22;;;16.93;65.41
21900;BME280;11114;50.658;12.704;2023-10-13T11:31:37;95756.25;;;17.11;64.95
21900;BME280;11114;50.658;12.704;2023-10-13T11:34:24;95752.16;;;17.26;63.38
21900;BME280;11114;50.658;12.704;2023-10-13T11:37:12;95745.09;;;17.43;64.01
21900;BME280;11114;50.658;12.704;2023-10-13T11:40:20;95760.47;;;17.64;63.04
21900;BME280;11114;50.658;12.704;2023-10-13T11:43:27;95745.88;;;17.78;62.11
21900;BME280;11114;50.658;12.704;2023-10-13T11:46:15;95742.88;;;17.86;60.34
21900;BME280;11114;50.658;12.704;2023-10-13T11:49:09;95743.44;;;17.88;60.32
21900;BME280;11114;50.658;12.704;2023-10-13T11:52:02;95736.06;;;17.90;60.76
21900;BME280;11114;50.658;12.704;2023-10-13T11:55:03;95731.94;;;18.22;61.15
21900;BME280;11114;50.658;12.704;2023-10-13T11:57:50;95725.84;;;18.66;58.95
21900;BME280;11114;50.658;12.704;2023-10-13T12:00:36;95720.19;;;18.90;57.47
21900;BME280;11114;50.658;12.704;2023-10-13T12:03:48;95713.91;;;19.12;56.92
21900;BME280;11114;50.658;12.704;2023-10-13T12:06:53;95711.47;;;19.27;57.42
21900;BME280;11114;50.658;12.704;2023-10-13T12:09:58;95705.25;;;19.38;56.04
21900;BME280;11114;50.658;12.704;2023-10-13T12:12:45;95701.28;;;19.41;55.27
21900;BME280;11114;50.658;12.704;2023-10-13T12:15:56;95690.66;;;19.41;55.19
21900;BME280;11114;50.658;12.704;2023-10-13T12:18:43;95695.28;;;19.50;55.46
21900;BME280;11114;50.658;12.704;2023-10-13T12:21:32;95691.75;;;19.61;53.98
21900;BME280;11114;50.658;12.704;2023-10-13T12:24:18;95691.59;;;19.89;55.09
21900;BME280;11114;50.658;12.704;2023-10-13T12:27:22;95693.53;;;20.20;53.98
21900;BME280;11114;50.658;12.704;2023-10-13T12:30:20;95688.22;;;20.20;53.22
21900;BME280;11114;50.658;12.704;2023-10-13T12:33:22;95687.16;;;20.21;52.84
21900;BME280;11114;50.658;12.704;2023-10-13T12:36:11;95685.00;;;20.18;52.99
21900;BME280;11114;50.658;12.704;2023-10-13T12:39:01;95680.16;;;20.15;52.35
21900;BME280;11114;50.658;12.704;2023-10-13T12:41:54;95677.81;;;20.18;50.81
21900;BME280;11114;50.658;12.704;2023-10-13T12:44:59;95679.06;;;20.32;52.74
21900;BME280;11114;50.658;12.704;2023-10-13T12:48:06;95671.91;;;20.38;51.87
21900;BME280;11114;50.658;12.704;2023-10-13T12:51:18;95664.28;;;20.46;51.30
21900;BME280;11114;50.658;12.704;2023-10-13T12:54:15;95655.03;;;20.54;51.60
21900;BME280;11114;50.658;12.704;2023-10-13T12:57:03;95663.31;;;20.57;51.99
21900;BME280;11114;50.658;12.704;2023-10-13T12:59:56;95659.44;;;20.69;50.98
21900;BME280;11114;50.658;12.704;2023-10-13T13:02:44;95641.94;;;20.83;51.08
21900;BME280;11114;50.658;12.704;2023-10-13T13:05:32;95648.72;;;20.96;51.38
21900;BME280;11114;50.658;12.704;2023-10-13T13:08:22;95643.25;;;21.12;50.83
21900;BME280;11114;50.658;12.704;2023-10-13T13:11:09;95643.88;;;21.24;49.28
21900;BME280;11114;50.658;12.704;2023-10-13T13:13:56;95638.91;;;21.42;49.05
21900;BME280;11114;50.658;12.704;2023-10-13T13:16:42;95629.56;;;21.45;48.94
21900;BME280;11114;50.658;12.704;2023-10-13T13:19:36;95616.25;;;21.50;49.44
21900;BME280;11114;50.658;12.704;2023-10-13T13:22:27;95631.50;;;21.54;49.00
21900;BME280;11114;50.658;12.704;2023-10-13T13:25:13;95619.38;;;21.37;48.94
21900;BME280;11114;50.658;12.704;2023-10-13T13:28:04;95608.63;;;21.27;48.90
21900;BME280;11114;50.658;12.704;2023-10-13T13:30:55;95620.78;;;21.08;49.31
21900;BME280;11114;50.658;12.704;2023-10-13T13:33:46;95615.69;;;21.02;47.67
21900;BME280;11114;50.658;12.704;2023-10-13T13:36:32;95608.13;;;21.30;47.44
21900;BME280;11114;50.658;12.704;2023-10-13T13:39:21;95606.09;;;21.52;48.43
21900;BME280;11114;50.658;12.704;2023-10-13T13:42:15;95605.41;;;21.71;47.44
21900;BME280;11114;50.658;12.704;2023-10-13T13:45:04;95596.03;;;21.64;46.12
21900;BME280;11114;50.658;12.704;2023-10-13T13:47:58;95595.31;;;21.32;45.29
21900;BME280;11114;50.658;12.704;2023-10-13T13:50:45;95590.13;;;21.11;45.93
21900;BME280;11114;50.658;12.704;2023-10-13T13:53:41;95581.63;;;20.82;46.04
21900;BME280;11114;50.658;12.704;2023-10-13T13:56:32;95583.63;;;20.65;44.86
21900;BME280;11114;50.658;12.704;2023-10-13T13:59:25;95586.19;;;20.51;45.91
21900;BME280;11114;50.658;12.704;2023-10-13T14:02:13;95587.72;;;20.42;44.42
21900;BME280;11114;50.658;12.704;2023-10-13T14:05:06;95572.63;;;20.26;45.12
21900;BME280;11114;50.658;12.704;2023-10-13T14:08:02;95589.00;;;20.13;45.92
21900;BME280;11114;50.658;12.704;2023-10-13T14:10:58;95592.31;;;19.98;46.05
21900;BME280;11114;50.658;12.704;2023-10-13T14:13:59;95592.47;;;19.87;45.67
21900;BME280;11114;50.658;12.704;2023-10-13T14:16:51;95583.56;;;19.76;45.03
21900;BME280;11114;50.658;12.704;2023-10-13T14:19:40;95583.50;;;19.72;45.56
21900;BME280;11114;50.658;12.704;2023-10-13T14:22:28;95579.25;;;19.71;45.46
21900;BME280;11114;50.658;12.704;2023-10-13T14:25:15;95565.84;;;19.66;44.89
21900;BME280;11114;50.658;12.704;2023-10-13T14:28:23;95561.56;;;19.65;46.10
21900;BME280;11114;50.658;12.704;2023-10-13T14:31:10;95571.94;;;19.61;45.80
21900;BME280;11114;50.658;12.704;2023-10-13T14:33:59;95571.88;;;19.56;45.85
21900;BME280;11114;50.658;12.704;2023-10-13T14:36:46;95556.63;;;19.52;45.59
21900;BME280;11114;50.658;12.704;2023-10-13T14:39:35;95556.06;;;19.50;46.67
21900;BME280;11114;50.658;12.704;2023-10-13T14:42:27;95555.19;;;19.44;46.44
21900;BME280;11114;50.658;12.704;2023-10-13T14:45:13;95544.50;;;19.39;47.17
21900;BME280;11114;50.658;12.704;2023-10-13T14:47:59;95544.19;;;19.36;47.04
21900;BME280;11114;50.658;12.704;2023-10-13T14:50:47;95535.34;;;19.30;46.86
21900;BME280;11114;50.658;12.704;2023-10-13T14:53:35;95547.78;;;19.25;47.11
21900;BME280;11114;50.658;12.704;2023-10-13T14:56:22;95530.38;;;19.17;47.58
21900;BME280;11114;50.658;12.704;2023-10-13T14:59:12;95533.78;;;19.13;47.61
21900;BME280;11114;50.658;12.704;2023-10-13T15:02:06;95529.44;;;19.07;47.86
21900;BME280;11114;50.658;12.704;2023-10-13T15:04:53;95529.94;;;19.04;48.08
21900;BME280;11114;50.658;12.704;2023-10-13T15:07:40;95522.19;;;19.02;48.42
21900;BME280;11114;50.658;12.704;2023-10-13T15:10:31;95522.50;;;19.06;48.55
21900;BME280;11114;50.658;12.704;2023-10-13T15:13:17;95519.59;;;19.07;49.06
21900;BME280;11114;50.658;12.704;2023-10-13T15:16:19;95513.22;;;19.08;48.26